Ana Sayfa
METAR-TAF:

METAR-TAF

Havaalanları :

Borden, Ontario, Kanada

Enlem: 44-15N, Boylam: 079-55W, yükseklik: 223 m

Güncel hava durumu gözlemi

Rapor saat 01:00 UTC de 19 saat ve 38 dakika önce yapıldı.
Rüzgar batı/kuzeybatıdan 4 kt, batı ve kuzey/kuzeybatı arasında değişken
Sıcaklık 4°C
Nem 93%
Basınç 1015 hPa

METAR: CYBN 310100Z AUTO 29004KT 270V340 04/03 A2996 RMK SLP153

Saat: 16:38 (20:38 UTC)


TAF: eksik

4.000'den fazla havaalanı için hava durumu gözlemleri ve tahminleri (METAR ve TAF raporları).

Kullanılabilir istasyonlar harita üzerinde sarı ve kırmızı noktalarla gösterilir.

İstasyonun adını görmek için fareyi noktanın üzerinde gezdirin.

Sonrasında hava gözlem ve tahminlerini görmek için tıklayın.

Haritayı değiştirmek için: yaklaştırmak için siyah artı işaretli yeşil düğmeye ve uzaklaştırmak için de eksi işaretli düğmeye hızla tıklayın; bitişik haritalar için yeşil okları kullanın.


METAR-TAF: